sensor_id;sensor_type;location;lat;lon;timestamp;temperature;humidity
44190;DHT22;29856;52.144;5.430;2023-05-29T00:02:11;11.90;99.90
44190;DHT22;29856;52.144;5.430;2023-05-29T00:04:37;11.90;99.90
44190;DHT22;29856;52.144;5.430;2023-05-29T00:07:02;11.90;99.90
44190;DHT22;29856;52.144;5.430;2023-05-29T00:09:28;11.80;99.90
44190;DHT22;29856;52.144;5.430;2023-05-29T00:11:53;11.90;99.90
44190;DHT22;29856;52.144;5.430;2023-05-29T00:14:19;11.90;99.90
44190;DHT22;29856;52.144;5.430;2023-05-29T00:16:46;11.80;99.90
44190;DHT22;29856;52.144;5.430;2023-05-29T00:19:11;11.80;99.90
44190;DHT22;29856;52.144;5.430;2023-05-29T00:21:37;11.80;99.90
44190;DHT22;29856;52.144;5.430;2023-05-29T00:24:02;11.80;99.90
44190;DHT22;29856;52.144;5.430;2023-05-29T00:26:28;11.80;99.90
44190;DHT22;29856;52.144;5.430;2023-05-29T00:28:53;11.80;99.90
44190;DHT22;29856;52.144;5.430;2023-05-29T00:31:19;11.70;99.90
44190;DHT22;29856;52.144;5.430;2023-05-29T00:33:44;11.70;99.90
44190;DHT22;29856;52.144;5.430;2023-05-29T00:36:10;11.80;99.90
44190;DHT22;29856;52.144;5.430;2023-05-29T00:38:35;11.70;99.90
44190;DHT22;29856;52.144;5.430;2023-05-29T00:41:01;11.70;99.90
44190;DHT22;29856;52.144;5.430;2023-05-29T00:43:26;11.70;99.90
44190;DHT22;29856;52.144;5.430;2023-05-29T00:45:51;11.70;99.90
44190;DHT22;29856;52.144;5.430;2023-05-29T00:48:17;11.60;99.90
44190;DHT22;29856;52.144;5.430;2023-05-29T00:50:43;11.60;99.90
44190;DHT22;29856;52.144;5.430;2023-05-29T00:53:10;11.60;99.90
44190;DHT22;29856;52.144;5.430;2023-05-29T00:55:35;11.70;99.90
44190;DHT22;29856;52.144;5.430;2023-05-29T00:58:01;11.70;99.90
44190;DHT22;29856;52.144;5.430;2023-05-29T01:00:27;11.60;99.90
44190;DHT22;29856;52.144;5.430;2023-05-29T01:02:53;11.60;99.90
44190;DHT22;29856;52.144;5.430;2023-05-29T01:05:19;11.60;99.90
44190;DHT22;29856;52.144;5.430;2023-05-29T01:07:45;11.60;99.90
44190;DHT22;29856;52.144;5.430;2023-05-29T01:10:11;11.60;99.90
44190;DHT22;29856;52.144;5.430;2023-05-29T01:15:54;11.50;99.90
44190;DHT22;29856;52.144;5.430;2023-05-29T01:24:22;11.50;99.90
44190;DHT22;29856;52.144;5.430;2023-05-29T01:27:09;11.50;99.90
44190;DHT22;29856;52.144;5.430;2023-05-29T01:29:39;11.50;99.90
44190;DHT22;29856;52.144;5.430;2023-05-29T01:32:05;11.50;99.90
44190;DHT22;29856;52.144;5.430;2023-05-29T01:34:30;11.50;99.90
44190;DHT22;29856;52.144;5.430;2023-05-29T01:36:56;11.40;99.90
44190;DHT22;29856;52.144;5.430;2023-05-29T01:39:22;11.40;99.90
44190;DHT22;29856;52.144;5.430;2023-05-29T01:41:48;11.40;99.90
44190;DHT22;29856;52.144;5.430;2023-05-29T01:44:14;11.30;99.90
44190;DHT22;29856;52.144;5.430;2023-05-29T01:46:43;11.30;99.90
44190;DHT22;29856;52.144;5.430;2023-05-29T01:49:10;11.30;99.90
44190;DHT22;29856;52.144;5.430;2023-05-29T01:51:35;11.30;99.90
44190;DHT22;29856;52.144;5.430;2023-05-29T01:54:01;11.30;99.90
44190;DHT22;29856;52.144;5.430;2023-05-29T01:56:27;11.30;99.90
44190;DHT22;29856;52.144;5.430;2023-05-29T01:58:55;11.30;99.90
44190;DHT22;29856;52.144;5.430;2023-05-29T02:01:21;11.30;99.90
44190;DHT22;29856;52.144;5.430;2023-05-29T02:03:47;11.30;99.90
44190;DHT22;29856;52.144;5.430;2023-05-29T02:06:13;11.30;99.90
44190;DHT22;29856;52.144;5.430;2023-05-29T02:08:38;11.20;99.90
44190;DHT22;29856;52.144;5.430;2023-05-29T02:11:03;11.20;99.90
44190;DHT22;29856;52.144;5.430;2023-05-29T02:13:29;11.10;99.90
44190;DHT22;29856;52.144;5.430;2023-05-29T02:15:54;11.10;99.90
44190;DHT22;29856;52.144;5.430;2023-05-29T02:18:20;11.10;99.90
44190;DHT22;29856;52.144;5.430;2023-05-29T02:20:46;11.10;99.90
44190;DHT22;29856;52.144;5.430;2023-05-29T02:23:12;11.10;99.90
44190;DHT22;29856;52.144;5.430;2023-05-29T02:25:37;11.00;99.90
44190;DHT22;29856;52.144;5.430;2023-05-29T02:28:03;11.10;99.90
44190;DHT22;29856;52.144;5.430;2023-05-29T02:30:30;11.10;99.90
44190;DHT22;29856;52.144;5.430;2023-05-29T02:32:55;10.90;99.90
44190;DHT22;29856;52.144;5.430;2023-05-29T02:35:21;10.90;99.90
44190;DHT22;29856;52.144;5.430;2023-05-29T02:37:46;10.80;99.90
44190;DHT22;29856;52.144;5.430;2023-05-29T02:40:12;10.80;99.90
44190;DHT22;29856;52.144;5.430;2023-05-29T02:42:37;10.80;99.90
44190;DHT22;29856;52.144;5.430;2023-05-29T02:45:03;10.90;99.90
44190;DHT22;29856;52.144;5.430;2023-05-29T02:47:29;10.90;99.90
44190;DHT22;29856;52.144;5.430;2023-05-29T02:49:54;10.80;99.90
44190;DHT22;29856;52.144;5.430;2023-05-29T02:52:20;10.80;99.90
44190;DHT22;29856;52.144;5.430;2023-05-29T02:54:45;10.80;99.90
44190;DHT22;29856;52.144;5.430;2023-05-29T02:57:11;10.70;99.90
44190;DHT22;29856;52.144;5.430;2023-05-29T02:59:36;10.80;99.90
44190;DHT22;29856;52.144;5.430;2023-05-29T03:02:02;10.80;99.90
44190;DHT22;29856;52.144;5.430;2023-05-29T03:04:27;10.70;99.90
44190;DHT22;29856;52.144;5.430;2023-05-29T03:06:53;10.70;99.90
44190;DHT22;29856;52.144;5.430;2023-05-29T03:09:19;10.60;99.90
44190;DHT22;29856;52.144;5.430;2023-05-29T03:11:44;10.60;99.90
44190;DHT22;29856;52.144;5.430;2023-05-29T03:14:10;10.60;99.90
44190;DHT22;29856;52.144;5.430;2023-05-29T03:16:35;10.70;99.90
44190;DHT22;29856;52.144;5.430;2023-05-29T03:19:01;10.60;99.90
44190;DHT22;29856;52.144;5.430;2023-05-29T03:21:26;10.60;99.90
44190;DHT22;29856;52.144;5.430;2023-05-29T03:23:52;10.60;99.90
44190;DHT22;29856;52.144;5.430;2023-05-29T03:26:17;10.60;99.90
44190;DHT22;29856;52.144;5.430;2023-05-29T03:28:43;10.50;99.90
44190;DHT22;29856;52.144;5.430;2023-05-29T03:31:08;10.50;99.90
44190;DHT22;29856;52.144;5.430;2023-05-29T03:33:35;10.50;99.90
44190;DHT22;29856;52.144;5.430;2023-05-29T03:36:01;10.40;99.90
44190;DHT22;29856;52.144;5.430;2023-05-29T03:38:26;10.40;99.90
44190;DHT22;29856;52.144;5.430;2023-05-29T03:40:52;10.40;99.90
44190;DHT22;29856;52.144;5.430;2023-05-29T03:43:17;10.30;99.90
44190;DHT22;29856;52.144;5.430;2023-05-29T03:45:43;10.40;99.90
44190;DHT22;29856;52.144;5.430;2023-05-29T03:48:08;10.30;99.90
44190;DHT22;29856;52.144;5.430;2023-05-29T03:50:34;10.30;99.90
44190;DHT22;29856;52.144;5.430;2023-05-29T03:52:59;10.30;99.90
44190;DHT22;29856;52.144;5.430;2023-05-29T03:55:26;10.30;99.90
44190;DHT22;29856;52.144;5.430;2023-05-29T03:57:51;10.50;99.90
44190;DHT22;29856;52.144;5.430;2023-05-29T04:00:17;10.40;99.90
44190;DHT22;29856;52.144;5.430;2023-05-29T04:02:42;10.40;99.90
44190;DHT22;29856;52.144;5.430;2023-05-29T04:05:08;10.40;99.90
44190;DHT22;29856;52.144;5.430;2023-05-29T04:07:36;10.50;99.90
44190;DHT22;29856;52.144;5.430;2023-05-29T04:10:01;10.40;99.90
44190;DHT22;29856;52.144;5.430;2023-05-29T04:12:27;10.40;99.90
44190;DHT22;29856;52.144;5.430;2023-05-29T04:14:52;10.50;99.90
44190;DHT22;29856;52.144;5.430;2023-05-29T04:17:18;10.50;99.90
44190;DHT22;29856;52.144;5.430;2023-05-29T04:19:44;10.50;99.90
44190;DHT22;29856;52.144;5.430;2023-05-29T04:22:09;10.50;99.90
44190;DHT22;29856;52.144;5.430;2023-05-29T04:24:35;10.60;99.90
44190;DHT22;29856;52.144;5.430;2023-05-29T04:27:00;10.50;99.90
44190;DHT22;29856;52.144;5.430;2023-05-29T04:29:26;10.50;99.90
44190;DHT22;29856;52.144;5.430;2023-05-29T04:31:52;10.50;99.90
44190;DHT22;29856;52.144;5.430;2023-05-29T04:34:17;10.50;99.90
44190;DHT22;29856;52.144;5.430;2023-05-29T04:36:43;10.60;99.90
44190;DHT22;29856;52.144;5.430;2023-05-29T04:39:08;10.70;99.90
44190;DHT22;29856;52.144;5.430;2023-05-29T04:41:33;10.70;99.90
44190;DHT22;29856;52.144;5.430;2023-05-29T04:43:59;10.70;99.90
44190;DHT22;29856;52.144;5.430;2023-05-29T04:46:25;10.80;99.90
44190;DHT22;29856;52.144;5.430;2023-05-29T04:48:51;10.80;99.90
44190;DHT22;29856;52.144;5.430;2023-05-29T04:51:16;10.90;99.90
44190;DHT22;29856;52.144;5.430;2023-05-29T04:53:42;11.00;99.90
44190;DHT22;29856;52.144;5.430;2023-05-29T04:56:08;11.00;99.90
44190;DHT22;29856;52.144;5.430;2023-05-29T04:58:33;11.00;99.90
44190;DHT22;29856;52.144;5.430;2023-05-29T05:00:58;11.10;99.90
44190;DHT22;29856;52.144;5.430;2023-05-29T05:03:24;11.10;99.90
44190;DHT22;29856;52.144;5.430;2023-05-29T05:05:49;11.20;99.90
44190;DHT22;29856;52.144;5.430;2023-05-29T05:08:15;11.30;99.90
44190;DHT22;29856;52.144;5.430;2023-05-29T05:10:40;11.40;99.90
44190;DHT22;29856;52.144;5.430;2023-05-29T05:13:06;11.40;99.90
44190;DHT22;29856;52.144;5.430;2023-05-29T05:15:31;11.60;99.90
44190;DHT22;29856;52.144;5.430;2023-05-29T05:17:57;11.50;99.90
44190;DHT22;29856;52.144;5.430;2023-05-29T05:20:22;11.60;99.90
44190;DHT22;29856;52.144;5.430;2023-05-29T05:22:47;11.60;99.90
44190;DHT22;29856;52.144;5.430;2023-05-29T05:25:13;11.70;99.90
44190;DHT22;29856;52.144;5.430;2023-05-29T05:27:38;11.80;99.90
44190;DHT22;29856;52.144;5.430;2023-05-29T05:30:04;11.90;99.90
44190;DHT22;29856;52.144;5.430;2023-05-29T05:32:30;11.90;99.90
44190;DHT22;29856;52.144;5.430;2023-05-29T05:34:55;11.90;99.90
44190;DHT22;29856;52.144;5.430;2023-05-29T05:37:21;12.00;99.90
44190;DHT22;29856;52.144;5.430;2023-05-29T05:39:46;12.10;99.90
44190;DHT22;29856;52.144;5.430;2023-05-29T05:42:12;12.00;99.90
44190;DHT22;29856;52.144;5.430;2023-05-29T05:44:37;12.00;99.90
44190;DHT22;29856;52.144;5.430;2023-05-29T05:47:03;12.10;99.90
44190;DHT22;29856;52.144;5.430;2023-05-29T05:49:28;12.20;99.90
44190;DHT22;29856;52.144;5.430;2023-05-29T05:51:54;12.10;99.90
44190;DHT22;29856;52.144;5.430;2023-05-29T05:54:19;12.20;99.90
44190;DHT22;29856;52.144;5.430;2023-05-29T05:56:44;12.40;99.90
44190;DHT22;29856;52.144;5.430;2023-05-29T05:59:10;12.50;99.90
44190;DHT22;29856;52.144;5.430;2023-05-29T06:01:35;12.50;99.90
44190;DHT22;29856;52.144;5.430;2023-05-29T06:04:01;12.40;99.90
44190;DHT22;29856;52.144;5.430;2023-05-29T06:06:26;12.50;99.90
44190;DHT22;29856;52.144;5.430;2023-05-29T06:08:52;12.60;99.90
44190;DHT22;29856;52.144;5.430;2023-05-29T06:11:17;12.60;99.90
44190;DHT22;29856;52.144;5.430;2023-05-29T06:13:43;12.60;99.90
44190;DHT22;29856;52.144;5.430;2023-05-29T06:16:08;12.70;99.90
44190;DHT22;29856;52.144;5.430;2023-05-29T06:18:34;12.70;99.90
44190;DHT22;29856;52.144;5.430;2023-05-29T06:20:59;12.80;99.90
44190;DHT22;29856;52.144;5.430;2023-05-29T06:23:24;12.90;99.90
44190;DHT22;29856;52.144;5.430;2023-05-29T06:25:50;12.80;99.90
44190;DHT22;29856;52.144;5.430;2023-05-29T06:28:15;12.80;99.90
44190;DHT22;29856;52.144;5.430;2023-05-29T06:30:42;12.90;99.90
44190;DHT22;29856;52.144;5.430;2023-05-29T06:33:07;12.90;99.90
44190;DHT22;29856;52.144;5.430;2023-05-29T06:35:33;12.90;99.90
44190;DHT22;29856;52.144;5.430;2023-05-29T06:37:58;13.00;99.90
44190;DHT22;29856;52.144;5.430;2023-05-29T06:40:24;13.10;99.90
44190;DHT22;29856;52.144;5.430;2023-05-29T06:42:49;13.30;99.90
44190;DHT22;29856;52.144;5.430;2023-05-29T06:45:15;13.40;99.90
44190;DHT22;29856;52.144;5.430;2023-05-29T06:47:43;13.40;99.90
44190;DHT22;29856;52.144;5.430;2023-05-29T06:50:09;13.70;99.90
44190;DHT22;29856;52.144;5.430;2023-05-29T06:52:35;13.60;99.90
44190;DHT22;29856;52.144;5.430;2023-05-29T06:55:01;13.90;99.90
44190;DHT22;29856;52.144;5.430;2023-05-29T06:57:26;14.10;99.90
44190;DHT22;29856;52.144;5.430;2023-05-29T06:59:52;13.80;99.90
44190;DHT22;29856;52.144;5.430;2023-05-29T07:02:17;13.70;99.90
44190;DHT22;29856;52.144;5.430;2023-05-29T07:04:43;13.80;99.90
44190;DHT22;29856;52.144;5.430;2023-05-29T07:07:08;13.80;99.90
44190;DHT22;29856;52.144;5.430;2023-05-29T07:09:34;14.10;99.90
44190;DHT22;29856;52.144;5.430;2023-05-29T07:11:59;14.20;99.90
44190;DHT22;29856;52.144;5.430;2023-05-29T07:14:24;14.20;99.90
44190;DHT22;29856;52.144;5.430;2023-05-29T07:16:50;14.20;99.90
44190;DHT22;29856;52.144;5.430;2023-05-29T07:19:15;14.00;99.90
44190;DHT22;29856;52.144;5.430;2023-05-29T07:21:41;14.20;99.90
44190;DHT22;29856;52.144;5.430;2023-05-29T07:24:06;14.10;99.90
44190;DHT22;29856;52.144;5.430;2023-05-29T07:26:32;14.10;99.90
44190;DHT22;29856;52.144;5.430;2023-05-29T07:28:57;14.40;99.90
44190;DHT22;29856;52.144;5.430;2023-05-29T07:31:23;14.30;99.90
44190;DHT22;29856;52.144;5.430;2023-05-29T07:33:48;14.30;99.90
44190;DHT22;29856;52.144;5.430;2023-05-29T07:36:15;14.30;99.90
44190;DHT22;29856;52.144;5.430;2023-05-29T07:38:41;14.50;99.90
44190;DHT22;29856;52.144;5.430;2023-05-29T07:41:06;14.60;99.90
44190;DHT22;29856;52.144;5.430;2023-05-29T07:43:32;14.70;99.90
44190;DHT22;29856;52.144;5.430;2023-05-29T07:45:57;14.80;99.90
44190;DHT22;29856;52.144;5.430;2023-05-29T07:48:23;14.90;99.90
44190;DHT22;29856;52.144;5.430;2023-05-29T07:50:48;14.90;99.90
44190;DHT22;29856;52.144;5.430;2023-05-29T07:53:13;15.00;99.90
44190;DHT22;29856;52.144;5.430;2023-05-29T07:55:39;14.80;99.90
44190;DHT22;29856;52.144;5.430;2023-05-29T07:58:04;14.90;99.90
44190;DHT22;29856;52.144;5.430;2023-05-29T08:00:30;14.90;99.90
44190;DHT22;29856;52.144;5.430;2023-05-29T08:02:55;14.90;99.90
44190;DHT22;29856;52.144;5.430;2023-05-29T08:05:21;14.70;99.90
44190;DHT22;29856;52.144;5.430;2023-05-29T08:07:46;14.80;99.90
44190;DHT22;29856;52.144;5.430;2023-05-29T08:10:12;14.90;99.90
44190;DHT22;29856;52.144;5.430;2023-05-29T08:12:37;15.00;99.90
44190;DHT22;29856;52.144;5.430;2023-05-29T08:15:03;15.10;99.90
44190;DHT22;29856;52.144;5.430;2023-05-29T08:17:29;15.00;99.90
44190;DHT22;29856;52.144;5.430;2023-05-29T08:19:54;15.10;99.90
44190;DHT22;29856;52.144;5.430;2023-05-29T08:22:20;15.20;99.90
44190;DHT22;29856;52.144;5.430;2023-05-29T08:24:45;15.20;99.90
44190;DHT22;29856;52.144;5.430;2023-05-29T08:27:10;15.20;99.90
44190;DHT22;29856;52.144;5.430;2023-05-29T08:29:36;15.40;99.90
44190;DHT22;29856;52.144;5.430;2023-05-29T08:32:01;15.40;99.90
44190;DHT22;29856;52.144;5.430;2023-05-29T08:34:27;15.30;99.90
44190;DHT22;29856;52.144;5.430;2023-05-29T08:36:52;15.30;99.90
44190;DHT22;29856;52.144;5.430;2023-05-29T08:39:18;15.40;99.90
44190;DHT22;29856;52.144;5.430;2023-05-29T08:41:47;15.60;99.90
44190;DHT22;29856;52.144;5.430;2023-05-29T08:44:20;15.50;99.90
44190;DHT22;29856;52.144;5.430;2023-05-29T08:46:46;15.30;99.90
44190;DHT22;29856;52.144;5.430;2023-05-29T08:49:15;15.40;99.90
44190;DHT22;29856;52.144;5.430;2023-05-29T08:51:46;15.40;99.90
44190;DHT22;29856;52.144;5.430;2023-05-29T08:54:13;15.50;99.90
44190;DHT22;29856;52.144;5.430;2023-05-29T08:56:39;15.30;99.90
44190;DHT22;29856;52.144;5.430;2023-05-29T08:59:05;15.50;99.90
44190;DHT22;29856;52.144;5.430;2023-05-29T09:01:32;15.50;99.90
44190;DHT22;29856;52.144;5.430;2023-05-29T09:03:58;15.70;99.90
44190;DHT22;29856;52.144;5.430;2023-05-29T09:06:24;15.70;99.90
44190;DHT22;29856;52.144;5.430;2023-05-29T09:08:49;15.70;99.90
44190;DHT22;29856;52.144;5.430;2023-05-29T09:11:15;15.60;99.90
44190;DHT22;29856;52.144;5.430;2023-05-29T09:13:40;15.70;99.90
44190;DHT22;29856;52.144;5.430;2023-05-29T09:16:07;15.70;99.90
44190;DHT22;29856;52.144;5.430;2023-05-29T09:18:32;15.80;99.90
44190;DHT22;29856;52.144;5.430;2023-05-29T09:20:58;15.40;99.90
44190;DHT22;29856;52.144;5.430;2023-05-29T09:23:26;15.70;99.90
44190;DHT22;29856;52.144;5.430;2023-05-29T09:25:53;15.70;99.90
44190;DHT22;29856;52.144;5.430;2023-05-29T09:28:21;16.00;99.90
44190;DHT22;29856;52.144;5.430;2023-05-29T09:30:47;16.30;99.90
44190;DHT22;29856;52.144;5.430;2023-05-29T09:33:13;16.40;99.90
44190;DHT22;29856;52.144;5.430;2023-05-29T09:35:42;16.40;99.90
44190;DHT22;29856;52.144;5.430;2023-05-29T09:38:09;16.30;99.90
44190;DHT22;29856;52.144;5.430;2023-05-29T09:40:36;16.40;99.90
44190;DHT22;29856;52.144;5.430;2023-05-29T09:45:28;16.50;99.90
44190;DHT22;29856;52.144;5.430;2023-05-29T09:47:54;16.50;99.90
44190;DHT22;29856;52.144;5.430;2023-05-29T09:50:20;16.30;99.90
44190;DHT22;29856;52.144;5.430;2023-05-29T09:52:50;16.40;99.90
44190;DHT22;29856;52.144;5.430;2023-05-29T09:55:16;16.60;99.90
44190;DHT22;29856;52.144;5.430;2023-05-29T09:57:41;16.60;99.90
44190;DHT22;29856;52.144;5.430;2023-05-29T10:00:08;16.70;99.90
44190;DHT22;29856;52.144;5.430;2023-05-29T10:02:35;16.90;99.90
44190;DHT22;29856;52.144;5.430;2023-05-29T10:05:03;16.90;99.90
44190;DHT22;29856;52.144;5.430;2023-05-29T10:07:31;16.80;99.90
44190;DHT22;29856;52.144;5.430;2023-05-29T10:10:03;16.90;99.90
44190;DHT22;29856;52.144;5.430;2023-05-29T10:12:29;16.90;99.90
44190;DHT22;29856;52.144;5.430;2023-05-29T10:14:57;16.60;99.90
44190;DHT22;29856;52.144;5.430;2023-05-29T10:17:26;16.80;99.90
44190;DHT22;29856;52.144;5.430;2023-05-29T10:19:55;16.80;99.90
44190;DHT22;29856;52.144;5.430;2023-05-29T10:22:23;16.90;99.90
44190;DHT22;29856;52.144;5.430;2023-05-29T10:24:50;16.80;99.90
44190;DHT22;29856;52.144;5.430;2023-05-29T10:27:16;17.10;99.90
44190;DHT22;29856;52.144;5.430;2023-05-29T10:32:16;17.50;99.90
44190;DHT22;29856;52.144;5.430;2023-05-29T10:35:06;17.60;99.90
44190;DHT22;29856;52.144;5.430;2023-05-29T10:37:37;17.60;99.90
44190;DHT22;29856;52.144;5.430;2023-05-29T10:40:06;17.60;99.90
44190;DHT22;29856;52.144;5.430;2023-05-29T10:42:44;17.70;99.90
44190;DHT22;29856;52.144;5.430;2023-05-29T10:45:10;17.60;99.90
44190;DHT22;29856;52.144;5.430;2023-05-29T10:47:36;17.60;99.90
44190;DHT22;29856;52.144;5.430;2023-05-29T10:50:05;17.50;99.90
44190;DHT22;29856;52.144;5.430;2023-05-29T10:52:32;17.50;99.90
44190;DHT22;29856;52.144;5.430;2023-05-29T10:54:57;17.60;99.90
44190;DHT22;29856;52.144;5.430;2023-05-29T10:57:24;17.50;99.90
44190;DHT22;29856;52.144;5.430;2023-05-29T11:00:02;17.40;99.90
44190;DHT22;29856;52.144;5.430;2023-05-29T11:02:28;17.90;99.90
44190;DHT22;29856;52.144;5.430;2023-05-29T11:05:22;17.90;99.90
44190;DHT22;29856;52.144;5.430;2023-05-29T11:07:52;17.60;99.90
44190;DHT22;29856;52.144;5.430;2023-05-29T11:10:17;17.90;99.90
44190;DHT22;29856;52.144;5.430;2023-05-29T11:13:03;18.10;99.50
44190;DHT22;29856;52.144;5.430;2023-05-29T11:15:29;18.10;98.50
44190;DHT22;29856;52.144;5.430;2023-05-29T11:17:54;18.10;97.30
44190;DHT22;29856;52.144;5.430;2023-05-29T11:20:53;18.10;98.20
44190;DHT22;29856;52.144;5.430;2023-05-29T11:23:22;18.00;98.90
44190;DHT22;29856;52.144;5.430;2023-05-29T11:25:50;18.10;98.10
44190;DHT22;29856;52.144;5.430;2023-05-29T11:28:16;18.00;97.50
44190;DHT22;29856;52.144;5.430;2023-05-29T11:33:09;18.20;97.70
44190;DHT22;29856;52.144;5.430;2023-05-29T11:35:40;18.40;97.40
44190;DHT22;29856;52.144;5.430;2023-05-29T11:38:05;18.70;97.20
44190;DHT22;29856;52.144;5.430;2023-05-29T11:40:36;18.70;97.00
44190;DHT22;29856;52.144;5.430;2023-05-29T11:43:01;18.80;97.60
44190;DHT22;29856;52.144;5.430;2023-05-29T11:45:32;18.90;95.30
44190;DHT22;29856;52.144;5.430;2023-05-29T11:48:00;18.90;96.70
44190;DHT22;29856;52.144;5.430;2023-05-29T11:50:29;19.00;97.50
44190;DHT22;29856;52.144;5.430;2023-05-29T11:52:56;19.00;97.00
44190;DHT22;29856;52.144;5.430;2023-05-29T11:55:23;18.60;97.70
44190;DHT22;29856;52.144;5.430;2023-05-29T11:57:50;18.40;98.30
44190;DHT22;29856;52.144;5.430;2023-05-29T12:00:17;18.10;97.90
44190;DHT22;29856;52.144;5.430;2023-05-29T12:02:43;18.00;98.60
44190;DHT22;29856;52.144;5.430;2023-05-29T12:05:09;18.10;98.00
44190;DHT22;29856;52.144;5.430;2023-05-29T12:07:35;18.20;97.40
44190;DHT22;29856;52.144;5.430;2023-05-29T12:10:18;18.10;97.10
44190;DHT22;29856;52.144;5.430;2023-05-29T12:12:54;18.20;97.70
44190;DHT22;29856;52.144;5.430;2023-05-29T12:15:20;18.10;97.60
44190;DHT22;29856;52.144;5.430;2023-05-29T12:17:46;17.90;97.50
44190;DHT22;29856;52.144;5.430;2023-05-29T12:20:13;17.90;97.80
44190;DHT22;29856;52.144;5.430;2023-05-29T12:22:39;18.30;97.50
44190;DHT22;29856;52.144;5.430;2023-05-29T12:25:09;18.30;97.70
44190;DHT22;29856;52.144;5.430;2023-05-29T12:27:36;18.30;97.80
44190;DHT22;29856;52.144;5.430;2023-05-29T12:30:03;18.30;98.90
44190;DHT22;29856;52.144;5.430;2023-05-29T12:32:39;18.20;97.50
44190;DHT22;29856;52.144;5.430;2023-05-29T12:35:23;18.20;97.10
44190;DHT22;29856;52.144;5.430;2023-05-29T12:37:54;18.20;97.70
44190;DHT22;29856;52.144;5.430;2023-05-29T12:40:22;18.30;97.30
44190;DHT22;29856;52.144;5.430;2023-05-29T12:42:48;18.40;96.40
44190;DHT22;29856;52.144;5.430;2023-05-29T12:45:14;18.60;96.80
44190;DHT22;29856;52.144;5.430;2023-05-29T12:47:53;18.70;96.10
44190;DHT22;29856;52.144;5.430;2023-05-29T12:50:29;18.50;96.20
44190;DHT22;29856;52.144;5.430;2023-05-29T12:53:01;18.60;96.50
44190;DHT22;29856;52.144;5.430;2023-05-29T12:55:29;18.50;96.10
44190;DHT22;29856;52.144;5.430;2023-05-29T12:57:55;18.50;97.30
44190;DHT22;29856;52.144;5.430;2023-05-29T13:00:21;18.50;97.60
44190;DHT22;29856;52.144;5.430;2023-05-29T13:02:48;18.60;96.50
44190;DHT22;29856;52.144;5.430;2023-05-29T13:05:14;18.80;96.90
44190;DHT22;29856;52.144;5.430;2023-05-29T13:07:40;18.90;95.00
44190;DHT22;29856;52.144;5.430;2023-05-29T13:10:06;19.00;94.50
44190;DHT22;29856;52.144;5.430;2023-05-29T13:12:31;19.20;96.00
44190;DHT22;29856;52.144;5.430;2023-05-29T13:14:59;19.30;95.30
44190;DHT22;29856;52.144;5.430;2023-05-29T13:17:25;19.10;94.90
44190;DHT22;29856;52.144;5.430;2023-05-29T13:19:50;18.90;95.30
44190;DHT22;29856;52.144;5.430;2023-05-29T13:22:16;18.70;96.80
44190;DHT22;29856;52.144;5.430;2023-05-29T13:24:41;18.90;96.90
44190;DHT22;29856;52.144;5.430;2023-05-29T13:27:07;19.20;96.20
44190;DHT22;29856;52.144;5.430;2023-05-29T13:29:32;19.10;95.50
44190;DHT22;29856;52.144;5.430;2023-05-29T13:31:58;19.30;95.50
44190;DHT22;29856;52.144;5.430;2023-05-29T13:34:23;19.60;94.70
44190;DHT22;29856;52.144;5.430;2023-05-29T13:36:50;19.60;93.40
44190;DHT22;29856;52.144;5.430;2023-05-29T13:39:16;19.50;92.90
44190;DHT22;29856;52.144;5.430;2023-05-29T13:41:41;19.70;93.50
44190;DHT22;29856;52.144;5.430;2023-05-29T13:44:07;19.70;95.00
44190;DHT22;29856;52.144;5.430;2023-05-29T13:46:32;19.60;94.90
44190;DHT22;29856;52.144;5.430;2023-05-29T13:48:57;19.70;95.50
44190;DHT22;29856;52.144;5.430;2023-05-29T13:51:23;20.00;95.40
44190;DHT22;29856;52.144;5.430;2023-05-29T13:53:48;19.60;95.10
44190;DHT22;29856;52.144;5.430;2023-05-29T13:56:14;19.70;95.50
44190;DHT22;29856;52.144;5.430;2023-05-29T13:58:40;19.60;95.40
44190;DHT22;29856;52.144;5.430;2023-05-29T14:01:05;19.70;94.70
44190;DHT22;29856;52.144;5.430;2023-05-29T14:03:30;19.50;95.30
44190;DHT22;29856;52.144;5.430;2023-05-29T14:05:56;19.40;95.80
44190;DHT22;29856;52.144;5.430;2023-05-29T14:08:21;19.50;94.60
44190;DHT22;29856;52.144;5.430;2023-05-29T14:10:47;19.70;95.00
44190;DHT22;29856;52.144;5.430;2023-05-29T14:13:12;19.70;95.00
44190;DHT22;29856;52.144;5.430;2023-05-29T14:15:38;19.80;94.20
44190;DHT22;29856;52.144;5.430;2023-05-29T14:18:03;19.70;94.00
44190;DHT22;29856;52.144;5.430;2023-05-29T14:20:29;19.50;93.30
44190;DHT22;29856;52.144;5.430;2023-05-29T14:22:54;19.40;93.70
44190;DHT22;29856;52.144;5.430;2023-05-29T14:25:20;19.80;94.30
44190;DHT22;29856;52.144;5.430;2023-05-29T14:27:46;19.90;93.10
44190;DHT22;29856;52.144;5.430;2023-05-29T14:30:11;20.00;93.80
44190;DHT22;29856;52.144;5.430;2023-05-29T14:32:37;19.80;93.10
44190;DHT22;29856;52.144;5.430;2023-05-29T14:35:02;19.70;93.20
44190;DHT22;29856;52.144;5.430;2023-05-29T14:37:28;19.70;93.20
44190;DHT22;29856;52.144;5.430;2023-05-29T14:39:53;19.60;92.90
44190;DHT22;29856;52.144;5.430;2023-05-29T14:42:19;19.90;93.40
44190;DHT22;29856;52.144;5.430;2023-05-29T14:44:44;19.90;92.00
44190;DHT22;29856;52.144;5.430;2023-05-29T14:47:10;20.10;93.30
44190;DHT22;29856;52.144;5.430;2023-05-29T14:49:35;20.30;93.00
44190;DHT22;29856;52.144;5.430;2023-05-29T14:52:00;20.60;93.70
44190;DHT22;29856;52.144;5.430;2023-05-29T14:54:26;20.50;94.00
44190;DHT22;29856;52.144;5.430;2023-05-29T14:56:51;20.20;93.60
44190;DHT22;29856;52.144;5.430;2023-05-29T14:59:17;20.40;92.70
44190;DHT22;29856;52.144;5.430;2023-05-29T15:01:42;20.20;93.70
44190;DHT22;29856;52.144;5.430;2023-05-29T15:04:08;20.20;94.10
44190;DHT22;29856;52.144;5.430;2023-05-29T15:06:33;20.00;94.60
44190;DHT22;29856;52.144;5.430;2023-05-29T15:08:59;20.00;94.90
44190;DHT22;29856;52.144;5.430;2023-05-29T15:11:24;20.10;95.30
44190;DHT22;29856;52.144;5.430;2023-05-29T15:13:50;20.10;94.20
44190;DHT22;29856;52.144;5.430;2023-05-29T15:16:15;20.20;94.30
44190;DHT22;29856;52.144;5.430;2023-05-29T15:18:41;20.10;94.40
44190;DHT22;29856;52.144;5.430;2023-05-29T15:21:06;20.10;94.70
44190;DHT22;29856;52.144;5.430;2023-05-29T15:23:32;19.70;94.80
44190;DHT22;29856;52.144;5.430;2023-05-29T15:25:57;19.80;93.70
44190;DHT22;29856;52.144;5.430;2023-05-29T15:28:22;19.80;93.50
44190;DHT22;29856;52.144;5.430;2023-05-29T15:30:48;19.80;93.30
44190;DHT22;29856;52.144;5.430;2023-05-29T15:33:14;20.00;93.40
44190;DHT22;29856;52.144;5.430;2023-05-29T15:35:39;20.00;93.30
44190;DHT22;29856;52.144;5.430;2023-05-29T15:38:05;19.90;93.30
44190;DHT22;29856;52.144;5.430;2023-05-29T15:40:36;19.80;93.00
44190;DHT22;29856;52.144;5.430;2023-05-29T15:43:01;19.90;92.70